Airfield :
LOGIN :

Register | Disclaimer

   EN    FR    IT 

 










Legend :    VFR   Marginal VFR   IFR   Intensive IFR   Very Intensive IFR
Visi :
Ceiling :
>= 8 km
>= 3000ft
5 to 8 km
1000 to 3000 ft
1500m to 5 km
500 to 1000 ft
800 to 1500m
200 to 500 ft
< 800m
< 200 ft
Symbols :   Thunderstorms  Fog  Heavy snow  Heavy precipitations  Wind > 20 kt
SIGMETs :     Misc.  Thunderstorms  Icing  Turbulence  Mountain Waves  Volcanic Ashes







- Airport Elevation : 659 ft
- IATA code : LGG


EBLG - Liège

CURRENT METAR :
  • 211720Z 20011KT 9999 SCT026 13/08 Q1011 NOSIG

EXPIRED METARs :
  • 211650Z 20012KT 9999 FEW026 14/08 Q1011 NOSIG
  • 211620Z 20012KT 9999 FEW026 14/09 Q1011 NOSIG
  • 211550Z 20012KT 9999 FEW026 15/09 Q1011 NOSIG
  • 211520Z 21012KT 9999 SCT026 15/09 Q1011 NOSIG
  • 211450Z 21012KT 9999 SCT026 15/10 Q1011 NOSIG
  • 211420Z 22014KT 9999 SCT026 15/09 Q1011 NOSIG

TAF TAF EBLG
Valid from the 21 at 12:00 until the 22 at 18:00 UTC


211103Z 2112/2218 22013KT 9999 FEW020TCU SCT040
TEMPO 2112/2124 22015G25KT
PROB30
TEMPO 2115/2119 2500 SHRA
TEMPO 2200/2204 22018G32KT
TEMPO 2202/2212 2500 SHRA RA
TEMPO 2206/2212 BKN010
No reported NOTAMs for that airfield.



MET'MAP, your aeronautical weather chart ! - Copyright ORBIFLY December 2007 - Disclaimer

ORBIFLY MET'MAP TEAM :

Programming & Development : Alexandra Zaïnal
Concept & Development : Baudouin d'Aumeries
Co-Development & Prog : Marc-Olivier Méhu
Technical & hardware support : Manuel Goepfert

Contact : metmap@orbifly.com




SOURCES & CREDITS :

   NOAA